sensor_id;sensor_type;location;lat;lon;timestamp;temperature;humidity
20654;DHT22;21083;50.898;4.902;2023-01-29T00:01:38;0.50;99.90
20654;DHT22;21083;50.898;4.902;2023-01-29T00:04:05;0.50;99.90
20654;DHT22;21083;50.898;4.902;2023-01-29T00:06:32;0.50;99.90
20654;DHT22;21083;50.898;4.902;2023-01-29T00:08:59;0.50;99.90
20654;DHT22;21083;50.898;4.902;2023-01-29T00:11:26;0.50;99.90
20654;DHT22;21083;50.898;4.902;2023-01-29T00:13:53;0.50;99.90
20654;DHT22;21083;50.898;4.902;2023-01-29T00:16:21;0.60;99.90
20654;DHT22;21083;50.898;4.902;2023-01-29T00:18:49;0.50;99.90
20654;DHT22;21083;50.898;4.902;2023-01-29T00:21:18;0.40;99.90
20654;DHT22;21083;50.898;4.902;2023-01-29T00:23:47;0.40;99.90
20654;DHT22;21083;50.898;4.902;2023-01-29T00:26:14;0.40;99.90
20654;DHT22;21083;50.898;4.902;2023-01-29T00:28:41;0.30;99.90
20654;DHT22;21083;50.898;4.902;2023-01-29T00:31:09;0.30;99.90
20654;DHT22;21083;50.898;4.902;2023-01-29T00:33:36;0.30;99.90
20654;DHT22;21083;50.898;4.902;2023-01-29T00:36:06;0.30;99.90
20654;DHT22;21083;50.898;4.902;2023-01-29T00:38:34;0.30;99.90
20654;DHT22;21083;50.898;4.902;2023-01-29T00:41:05;0.20;99.90
20654;DHT22;21083;50.898;4.902;2023-01-29T00:43:50;0.10;99.90
20654;DHT22;21083;50.898;4.902;2023-01-29T00:46:34;0.10;99.90
20654;DHT22;21083;50.898;4.902;2023-01-29T00:49:01;0.10;99.90
20654;DHT22;21083;50.898;4.902;2023-01-29T00:51:29;0.00;99.90
20654;DHT22;21083;50.898;4.902;2023-01-29T00:53:57;0.00;99.90
20654;DHT22;21083;50.898;4.902;2023-01-29T00:56:28;0.00;99.90
20654;DHT22;21083;50.898;4.902;2023-01-29T00:58:55;0.00;99.90
20654;DHT22;21083;50.898;4.902;2023-01-29T01:01:22;-0.10;99.90
20654;DHT22;21083;50.898;4.902;2023-01-29T01:04:03;-0.10;99.90
20654;DHT22;21083;50.898;4.902;2023-01-29T01:06:32;-0.10;99.90
20654;DHT22;21083;50.898;4.902;2023-01-29T01:08:59;-0.10;99.90
20654;DHT22;21083;50.898;4.902;2023-01-29T01:11:43;-0.10;99.90
20654;DHT22;21083;50.898;4.902;2023-01-29T01:14:10;-0.10;99.90
20654;DHT22;21083;50.898;4.902;2023-01-29T01:16:36;0.00;99.90
20654;DHT22;21083;50.898;4.902;2023-01-29T01:19:04;0.00;99.90
20654;DHT22;21083;50.898;4.902;2023-01-29T01:21:32;0.00;99.90
20654;DHT22;21083;50.898;4.902;2023-01-29T01:23:59;0.00;99.90
20654;DHT22;21083;50.898;4.902;2023-01-29T01:26:26;0.00;99.90
20654;DHT22;21083;50.898;4.902;2023-01-29T01:28:53;0.00;99.90
20654;DHT22;21083;50.898;4.902;2023-01-29T01:31:20;0.00;99.90
20654;DHT22;21083;50.898;4.902;2023-01-29T01:33:47;0.00;99.90
20654;DHT22;21083;50.898;4.902;2023-01-29T01:36:16;0.10;99.90
20654;DHT22;21083;50.898;4.902;2023-01-29T01:38:44;0.10;99.90
20654;DHT22;21083;50.898;4.902;2023-01-29T01:41:11;0.00;99.90
20654;DHT22;21083;50.898;4.902;2023-01-29T01:43:49;0.00;99.90
20654;DHT22;21083;50.898;4.902;2023-01-29T01:46:16;0.00;99.90
20654;DHT22;21083;50.898;4.902;2023-01-29T01:48:44;0.00;99.90
20654;DHT22;21083;50.898;4.902;2023-01-29T01:51:12;0.00;99.90
20654;DHT22;21083;50.898;4.902;2023-01-29T01:53:45;0.00;99.90
20654;DHT22;21083;50.898;4.902;2023-01-29T01:56:19;-0.20;99.90
20654;DHT22;21083;50.898;4.902;2023-01-29T01:58:49;-0.20;99.90
20654;DHT22;21083;50.898;4.902;2023-01-29T02:01:17;-0.20;99.90
20654;DHT22;21083;50.898;4.902;2023-01-29T02:03:55;-0.20;99.90
20654;DHT22;21083;50.898;4.902;2023-01-29T02:06:40;-0.20;99.90
20654;DHT22;21083;50.898;4.902;2023-01-29T02:09:30;-0.20;99.90
20654;DHT22;21083;50.898;4.902;2023-01-29T02:12:00;-0.30;99.90
20654;DHT22;21083;50.898;4.902;2023-01-29T02:14:27;-0.30;99.90
20654;DHT22;21083;50.898;4.902;2023-01-29T02:16:55;-0.30;99.90
20654;DHT22;21083;50.898;4.902;2023-01-29T02:19:33;-0.30;99.90
20654;DHT22;21083;50.898;4.902;2023-01-29T02:22:28;-0.30;99.90
20654;DHT22;21083;50.898;4.902;2023-01-29T02:25:37;-0.30;99.90
20654;DHT22;21083;50.898;4.902;2023-01-29T02:28:23;-0.30;99.90
20654;DHT22;21083;50.898;4.902;2023-01-29T02:30:56;-0.40;99.90
20654;DHT22;21083;50.898;4.902;2023-01-29T02:33:38;-0.40;99.90
20654;DHT22;21083;50.898;4.902;2023-01-29T02:36:13;-0.40;99.90
20654;DHT22;21083;50.898;4.902;2023-01-29T02:38:48;-0.30;99.90
20654;DHT22;21083;50.898;4.902;2023-01-29T02:41:25;-0.30;99.90
20654;DHT22;21083;50.898;4.902;2023-01-29T02:43:58;-0.30;99.90
20654;DHT22;21083;50.898;4.902;2023-01-29T02:46:33;-0.30;99.90
20654;DHT22;21083;50.898;4.902;2023-01-29T02:49:07;-0.30;99.90
20654;DHT22;21083;50.898;4.902;2023-01-29T02:51:39;-0.30;99.90
20654;DHT22;21083;50.898;4.902;2023-01-29T02:54:13;-0.30;99.90
20654;DHT22;21083;50.898;4.902;2023-01-29T02:56:47;-0.30;99.90
20654;DHT22;21083;50.898;4.902;2023-01-29T02:59:20;-0.20;99.90
20654;DHT22;21083;50.898;4.902;2023-01-29T03:01:50;-0.30;99.90
20654;DHT22;21083;50.898;4.902;2023-01-29T03:04:21;-0.30;99.90
20654;DHT22;21083;50.898;4.902;2023-01-29T03:06:53;-0.20;99.90
20654;DHT22;21083;50.898;4.902;2023-01-29T03:09:27;-0.20;99.90
20654;DHT22;21083;50.898;4.902;2023-01-29T03:12:04;-0.20;99.90
20654;DHT22;21083;50.898;4.902;2023-01-29T03:14:46;-0.30;99.90
20654;DHT22;21083;50.898;4.902;2023-01-29T03:17:36;-0.40;99.90
20654;DHT22;21083;50.898;4.902;2023-01-29T03:20:08;-0.40;99.90
20654;DHT22;21083;50.898;4.902;2023-01-29T03:22:38;-0.40;99.90
20654;DHT22;21083;50.898;4.902;2023-01-29T03:25:07;-0.40;99.90
20654;DHT22;21083;50.898;4.902;2023-01-29T03:27:55;-0.30;99.90
20654;DHT22;21083;50.898;4.902;2023-01-29T03:30:45;-0.40;99.90
20654;DHT22;21083;50.898;4.902;2023-01-29T03:33:37;-0.40;99.90
20654;DHT22;21083;50.898;4.902;2023-01-29T03:36:09;-0.40;99.90
20654;DHT22;21083;50.898;4.902;2023-01-29T03:38:37;-0.50;99.90
20654;DHT22;21083;50.898;4.902;2023-01-29T03:41:08;-0.50;99.90
20654;DHT22;21083;50.898;4.902;2023-01-29T03:43:43;-0.50;99.90
20654;DHT22;21083;50.898;4.902;2023-01-29T03:46:20;-0.40;99.90
20654;DHT22;21083;50.898;4.902;2023-01-29T03:48:56;-0.50;99.90
20654;DHT22;21083;50.898;4.902;2023-01-29T03:51:29;-0.50;99.90
20654;DHT22;21083;50.898;4.902;2023-01-29T03:54:04;-0.50;99.90
20654;DHT22;21083;50.898;4.902;2023-01-29T03:56:42;-0.50;99.90
20654;DHT22;21083;50.898;4.902;2023-01-29T03:59:18;-0.60;99.90
20654;DHT22;21083;50.898;4.902;2023-01-29T04:01:51;-0.60;99.90
20654;DHT22;21083;50.898;4.902;2023-01-29T04:04:23;-0.60;99.90
20654;DHT22;21083;50.898;4.902;2023-01-29T04:06:55;-0.60;99.90
20654;DHT22;21083;50.898;4.902;2023-01-29T04:09:26;-0.50;99.90
20654;DHT22;21083;50.898;4.902;2023-01-29T04:11:58;-0.50;99.90
20654;DHT22;21083;50.898;4.902;2023-01-29T04:14:27;-0.60;99.90
20654;DHT22;21083;50.898;4.902;2023-01-29T04:16:59;-0.60;99.90
20654;DHT22;21083;50.898;4.902;2023-01-29T04:19:26;-0.60;99.90
20654;DHT22;21083;50.898;4.902;2023-01-29T04:22:01;-0.60;99.90
20654;DHT22;21083;50.898;4.902;2023-01-29T04:24:29;-0.60;99.90
20654;DHT22;21083;50.898;4.902;2023-01-29T04:27:03;-0.60;99.90
20654;DHT22;21083;50.898;4.902;2023-01-29T04:29:45;-0.60;99.90
20654;DHT22;21083;50.898;4.902;2023-01-29T04:32:22;-0.70;99.90
20654;DHT22;21083;50.898;4.902;2023-01-29T04:34:59;-0.70;99.90
20654;DHT22;21083;50.898;4.902;2023-01-29T04:37:35;-0.60;99.90
20654;DHT22;21083;50.898;4.902;2023-01-29T04:40:13;-0.50;99.90
20654;DHT22;21083;50.898;4.902;2023-01-29T04:42:46;-0.60;99.90
20654;DHT22;21083;50.898;4.902;2023-01-29T04:45:19;-0.70;99.90
20654;DHT22;21083;50.898;4.902;2023-01-29T04:47:56;-0.70;99.90
20654;DHT22;21083;50.898;4.902;2023-01-29T04:50:28;-0.70;99.90
20654;DHT22;21083;50.898;4.902;2023-01-29T04:53:02;-0.70;99.90
20654;DHT22;21083;50.898;4.902;2023-01-29T04:55:33;-0.70;99.90
20654;DHT22;21083;50.898;4.902;2023-01-29T04:58:05;-0.60;99.90
20654;DHT22;21083;50.898;4.902;2023-01-29T05:00:38;-0.60;99.90
20654;DHT22;21083;50.898;4.902;2023-01-29T05:03:07;-0.60;99.90
20654;DHT22;21083;50.898;4.902;2023-01-29T05:05:37;-0.60;99.90
20654;DHT22;21083;50.898;4.902;2023-01-29T05:08:05;-0.60;99.90
20654;DHT22;21083;50.898;4.902;2023-01-29T05:10:33;-0.60;99.90
20654;DHT22;21083;50.898;4.902;2023-01-29T05:13:03;-0.60;99.90
20654;DHT22;21083;50.898;4.902;2023-01-29T05:15:35;-0.60;99.90
20654;DHT22;21083;50.898;4.902;2023-01-29T05:18:03;-0.60;99.90
20654;DHT22;21083;50.898;4.902;2023-01-29T05:20:36;-0.50;99.90
20654;DHT22;21083;50.898;4.902;2023-01-29T05:23:04;-0.50;99.90
20654;DHT22;21083;50.898;4.902;2023-01-29T05:25:32;-0.40;99.90
20654;DHT22;21083;50.898;4.902;2023-01-29T05:27:59;-0.40;99.90
20654;DHT22;21083;50.898;4.902;2023-01-29T05:30:28;-0.30;99.90
20654;DHT22;21083;50.898;4.902;2023-01-29T05:32:55;-0.20;99.90
20654;DHT22;21083;50.898;4.902;2023-01-29T05:35:22;-0.40;99.90
20654;DHT22;21083;50.898;4.902;2023-01-29T05:37:50;-0.30;99.90
20654;DHT22;21083;50.898;4.902;2023-01-29T05:40:17;-0.30;99.90
20654;DHT22;21083;50.898;4.902;2023-01-29T05:42:44;-0.10;99.90
20654;DHT22;21083;50.898;4.902;2023-01-29T05:45:11;-0.10;99.90
20654;DHT22;21083;50.898;4.902;2023-01-29T05:47:38;0.00;99.90
20654;DHT22;21083;50.898;4.902;2023-01-29T05:50:06;0.00;99.90
20654;DHT22;21083;50.898;4.902;2023-01-29T05:52:33;0.10;99.90
20654;DHT22;21083;50.898;4.902;2023-01-29T05:55:01;0.10;99.90
20654;DHT22;21083;50.898;4.902;2023-01-29T05:57:28;0.10;99.90
20654;DHT22;21083;50.898;4.902;2023-01-29T05:59:55;0.10;99.90
20654;DHT22;21083;50.898;4.902;2023-01-29T06:02:22;0.10;99.90
20654;DHT22;21083;50.898;4.902;2023-01-29T06:04:50;0.20;99.90
20654;DHT22;21083;50.898;4.902;2023-01-29T06:07:17;0.20;99.90
20654;DHT22;21083;50.898;4.902;2023-01-29T06:09:44;0.20;99.90
20654;DHT22;21083;50.898;4.902;2023-01-29T06:12:12;0.20;99.90
20654;DHT22;21083;50.898;4.902;2023-01-29T06:14:39;0.10;99.90
20654;DHT22;21083;50.898;4.902;2023-01-29T06:17:06;0.10;99.90
20654;DHT22;21083;50.898;4.902;2023-01-29T06:19:33;0.00;99.90
20654;DHT22;21083;50.898;4.902;2023-01-29T06:22:00;0.00;99.90
20654;DHT22;21083;50.898;4.902;2023-01-29T06:24:27;0.00;99.90
20654;DHT22;21083;50.898;4.902;2023-01-29T06:26:54;0.10;99.90
20654;DHT22;21083;50.898;4.902;2023-01-29T06:29:22;0.10;99.90
20654;DHT22;21083;50.898;4.902;2023-01-29T06:31:49;0.00;99.90
20654;DHT22;21083;50.898;4.902;2023-01-29T06:34:16;0.00;99.90
20654;DHT22;21083;50.898;4.902;2023-01-29T06:36:43;0.20;99.90
20654;DHT22;21083;50.898;4.902;2023-01-29T06:39:10;0.20;99.90
20654;DHT22;21083;50.898;4.902;2023-01-29T06:41:37;0.20;99.90
20654;DHT22;21083;50.898;4.902;2023-01-29T06:44:04;0.20;99.90
20654;DHT22;21083;50.898;4.902;2023-01-29T06:46:32;0.30;99.90
20654;DHT22;21083;50.898;4.902;2023-01-29T06:48:59;0.30;99.90
20654;DHT22;21083;50.898;4.902;2023-01-29T06:51:26;0.40;99.90
20654;DHT22;21083;50.898;4.902;2023-01-29T06:53:53;0.40;99.90
20654;DHT22;21083;50.898;4.902;2023-01-29T06:56:21;0.50;99.90
20654;DHT22;21083;50.898;4.902;2023-01-29T06:58:48;0.50;99.90
20654;DHT22;21083;50.898;4.902;2023-01-29T07:01:15;0.60;99.90
20654;DHT22;21083;50.898;4.902;2023-01-29T07:03:43;0.60;99.90
20654;DHT22;21083;50.898;4.902;2023-01-29T07:06:10;0.60;99.90
20654;DHT22;21083;50.898;4.902;2023-01-29T07:08:37;0.70;99.90
20654;DHT22;21083;50.898;4.902;2023-01-29T07:11:05;0.60;99.90
20654;DHT22;21083;50.898;4.902;2023-01-29T07:13:32;0.60;99.90
20654;DHT22;21083;50.898;4.902;2023-01-29T07:15:59;0.60;99.90
20654;DHT22;21083;50.898;4.902;2023-01-29T07:18:27;0.70;99.90
20654;DHT22;21083;50.898;4.902;2023-01-29T07:20:55;0.80;99.90
20654;DHT22;21083;50.898;4.902;2023-01-29T07:23:22;0.80;99.90
20654;DHT22;21083;50.898;4.902;2023-01-29T07:25:50;0.80;99.90
20654;DHT22;21083;50.898;4.902;2023-01-29T07:28:17;0.70;99.90
20654;DHT22;21083;50.898;4.902;2023-01-29T07:30:45;0.80;99.90
20654;DHT22;21083;50.898;4.902;2023-01-29T07:33:12;0.80;99.90
20654;DHT22;21083;50.898;4.902;2023-01-29T07:35:40;0.80;99.90
20654;DHT22;21083;50.898;4.902;2023-01-29T07:38:09;0.80;99.90
20654;DHT22;21083;50.898;4.902;2023-01-29T07:40:37;0.70;99.90
20654;DHT22;21083;50.898;4.902;2023-01-29T07:43:06;0.70;99.90
20654;DHT22;21083;50.898;4.902;2023-01-29T07:45:33;0.80;99.90
20654;DHT22;21083;50.898;4.902;2023-01-29T07:48:00;0.70;99.90
20654;DHT22;21083;50.898;4.902;2023-01-29T07:50:29;0.80;99.90
20654;DHT22;21083;50.898;4.902;2023-01-29T07:52:57;0.80;99.90
20654;DHT22;21083;50.898;4.902;2023-01-29T07:55:25;1.00;99.90
20654;DHT22;21083;50.898;4.902;2023-01-29T07:57:54;1.00;99.90
20654;DHT22;21083;50.898;4.902;2023-01-29T08:00:22;1.00;99.90
20654;DHT22;21083;50.898;4.902;2023-01-29T08:02:49;1.10;99.90
20654;DHT22;21083;50.898;4.902;2023-01-29T08:05:16;1.00;99.90
20654;DHT22;21083;50.898;4.902;2023-01-29T08:07:43;1.00;99.90
20654;DHT22;21083;50.898;4.902;2023-01-29T08:10:10;1.00;99.90
20654;DHT22;21083;50.898;4.902;2023-01-29T08:12:39;1.10;99.90
20654;DHT22;21083;50.898;4.902;2023-01-29T08:15:06;1.10;99.90
20654;DHT22;21083;50.898;4.902;2023-01-29T08:17:33;1.20;99.90
20654;DHT22;21083;50.898;4.902;2023-01-29T08:20:00;1.20;99.90
20654;DHT22;21083;50.898;4.902;2023-01-29T08:22:27;1.20;99.90
20654;DHT22;21083;50.898;4.902;2023-01-29T08:24:54;1.00;99.90
20654;DHT22;21083;50.898;4.902;2023-01-29T08:27:21;1.00;99.90
20654;DHT22;21083;50.898;4.902;2023-01-29T08:29:49;1.10;99.90
20654;DHT22;21083;50.898;4.902;2023-01-29T08:32:16;1.20;99.90
20654;DHT22;21083;50.898;4.902;2023-01-29T08:34:43;1.20;99.90
20654;DHT22;21083;50.898;4.902;2023-01-29T08:37:10;1.30;99.90
20654;DHT22;21083;50.898;4.902;2023-01-29T08:39:37;1.30;99.90
20654;DHT22;21083;50.898;4.902;2023-01-29T08:42:04;1.20;99.90
20654;DHT22;21083;50.898;4.902;2023-01-29T08:44:31;1.20;99.90
20654;DHT22;21083;50.898;4.902;2023-01-29T08:46:59;1.30;99.90
20654;DHT22;21083;50.898;4.902;2023-01-29T08:49:26;1.30;99.90
20654;DHT22;21083;50.898;4.902;2023-01-29T08:51:53;1.40;99.90
20654;DHT22;21083;50.898;4.902;2023-01-29T08:54:21;1.50;99.90
20654;DHT22;21083;50.898;4.902;2023-01-29T08:56:48;1.50;99.90
20654;DHT22;21083;50.898;4.902;2023-01-29T08:59:15;1.50;99.90
20654;DHT22;21083;50.898;4.902;2023-01-29T09:01:42;1.40;99.90
20654;DHT22;21083;50.898;4.902;2023-01-29T09:04:10;1.40;99.90
20654;DHT22;21083;50.898;4.902;2023-01-29T09:06:37;1.60;99.90
20654;DHT22;21083;50.898;4.902;2023-01-29T09:09:04;1.70;99.90
20654;DHT22;21083;50.898;4.902;2023-01-29T09:11:31;1.70;99.90
20654;DHT22;21083;50.898;4.902;2023-01-29T09:13:58;1.70;99.90
20654;DHT22;21083;50.898;4.902;2023-01-29T09:16:25;1.70;99.90
20654;DHT22;21083;50.898;4.902;2023-01-29T09:18:52;1.70;99.90
20654;DHT22;21083;50.898;4.902;2023-01-29T09:21:21;1.50;99.90
20654;DHT22;21083;50.898;4.902;2023-01-29T09:23:48;1.80;99.90
20654;DHT22;21083;50.898;4.902;2023-01-29T09:26:14;1.80;99.90
20654;DHT22;21083;50.898;4.902;2023-01-29T09:28:41;1.90;99.90
20654;DHT22;21083;50.898;4.902;2023-01-29T09:31:08;1.80;99.90
20654;DHT22;21083;50.898;4.902;2023-01-29T09:33:35;1.80;99.90
20654;DHT22;21083;50.898;4.902;2023-01-29T09:36:03;1.70;99.90
20654;DHT22;21083;50.898;4.902;2023-01-29T09:38:31;1.70;99.90
20654;DHT22;21083;50.898;4.902;2023-01-29T09:41:07;1.70;99.90
20654;DHT22;21083;50.898;4.902;2023-01-29T09:43:43;1.80;99.90
20654;DHT22;21083;50.898;4.902;2023-01-29T09:46:16;1.80;99.90
20654;DHT22;21083;50.898;4.902;2023-01-29T09:48:45;1.90;99.90
20654;DHT22;21083;50.898;4.902;2023-01-29T09:51:22;2.00;99.90
20654;DHT22;21083;50.898;4.902;2023-01-29T09:53:54;1.90;99.90
20654;DHT22;21083;50.898;4.902;2023-01-29T09:56:24;2.10;99.90
20654;DHT22;21083;50.898;4.902;2023-01-29T09:58:56;2.00;99.90
20654;DHT22;21083;50.898;4.902;2023-01-29T10:01:30;2.00;99.90
20654;DHT22;21083;50.898;4.902;2023-01-29T10:07:08;2.00;99.90
20654;DHT22;21083;50.898;4.902;2023-01-29T10:09:55;2.00;99.90
20654;DHT22;21083;50.898;4.902;2023-01-29T10:12:36;2.10;99.90
20654;DHT22;21083;50.898;4.902;2023-01-29T10:15:17;2.10;99.90
20654;DHT22;21083;50.898;4.902;2023-01-29T10:17:57;2.10;99.90
20654;DHT22;21083;50.898;4.902;2023-01-29T10:20:35;2.10;99.90
20654;DHT22;21083;50.898;4.902;2023-01-29T10:23:13;2.10;99.90
20654;DHT22;21083;50.898;4.902;2023-01-29T10:25:44;2.10;99.90
20654;DHT22;21083;50.898;4.902;2023-01-29T10:28:16;2.20;99.90
20654;DHT22;21083;50.898;4.902;2023-01-29T10:30:48;2.30;99.90
20654;DHT22;21083;50.898;4.902;2023-01-29T10:33:21;2.20;99.90
20654;DHT22;21083;50.898;4.902;2023-01-29T10:35:52;2.20;99.90
20654;DHT22;21083;50.898;4.902;2023-01-29T10:38:28;2.30;99.90
20654;DHT22;21083;50.898;4.902;2023-01-29T10:41:07;2.30;99.90
20654;DHT22;21083;50.898;4.902;2023-01-29T10:43:49;2.40;99.90
20654;DHT22;21083;50.898;4.902;2023-01-29T10:46:22;2.40;99.90
20654;DHT22;21083;50.898;4.902;2023-01-29T10:49:03;2.60;99.90
20654;DHT22;21083;50.898;4.902;2023-01-29T10:51:49;2.60;99.90
20654;DHT22;21083;50.898;4.902;2023-01-29T10:54:30;2.70;99.90
20654;DHT22;21083;50.898;4.902;2023-01-29T10:57:09;2.70;99.90
20654;DHT22;21083;50.898;4.902;2023-01-29T10:59:56;2.70;99.90
20654;DHT22;21083;50.898;4.902;2023-01-29T11:02:24;2.70;99.90
20654;DHT22;21083;50.898;4.902;2023-01-29T11:04:51;2.80;99.90
20654;DHT22;21083;50.898;4.902;2023-01-29T11:07:20;2.60;99.90
20654;DHT22;21083;50.898;4.902;2023-01-29T11:09:52;2.60;99.90
20654;DHT22;21083;50.898;4.902;2023-01-29T11:12:22;2.60;99.90
20654;DHT22;21083;50.898;4.902;2023-01-29T11:14:58;2.60;99.90
20654;DHT22;21083;50.898;4.902;2023-01-29T11:17:27;2.60;99.90
20654;DHT22;21083;50.898;4.902;2023-01-29T11:19:54;2.70;99.90
20654;DHT22;21083;50.898;4.902;2023-01-29T11:22:23;2.70;99.90
20654;DHT22;21083;50.898;4.902;2023-01-29T11:25:10;2.80;99.90
20654;DHT22;21083;50.898;4.902;2023-01-29T11:27:44;2.90;99.90
20654;DHT22;21083;50.898;4.902;2023-01-29T11:30:18;2.80;99.90
20654;DHT22;21083;50.898;4.902;2023-01-29T11:32:50;2.90;99.90
20654;DHT22;21083;50.898;4.902;2023-01-29T11:35:21;2.90;99.90
20654;DHT22;21083;50.898;4.902;2023-01-29T11:37:48;2.70;99.90
20654;DHT22;21083;50.898;4.902;2023-01-29T11:40:37;2.80;99.90
20654;DHT22;21083;50.898;4.902;2023-01-29T11:43:18;2.90;99.90
20654;DHT22;21083;50.898;4.902;2023-01-29T11:45:46;2.90;99.90
20654;DHT22;21083;50.898;4.902;2023-01-29T11:48:15;2.90;99.90
20654;DHT22;21083;50.898;4.902;2023-01-29T11:50:43;2.80;99.90
20654;DHT22;21083;50.898;4.902;2023-01-29T11:53:32;2.90;99.90
20654;DHT22;21083;50.898;4.902;2023-01-29T11:56:01;2.80;99.90
20654;DHT22;21083;50.898;4.902;2023-01-29T11:58:32;2.80;99.90
20654;DHT22;21083;50.898;4.902;2023-01-29T12:01:00;2.90;99.90
20654;DHT22;21083;50.898;4.902;2023-01-29T12:03:32;3.00;99.90
20654;DHT22;21083;50.898;4.902;2023-01-29T12:06:01;3.00;99.90
20654;DHT22;21083;50.898;4.902;2023-01-29T12:08:34;2.90;99.90
20654;DHT22;21083;50.898;4.902;2023-01-29T12:11:11;3.10;99.90
20654;DHT22;21083;50.898;4.902;2023-01-29T12:13:40;3.30;99.90
20654;DHT22;21083;50.898;4.902;2023-01-29T12:16:16;3.20;99.90
20654;DHT22;21083;50.898;4.902;2023-01-29T12:18:49;3.20;99.90
20654;DHT22;21083;50.898;4.902;2023-01-29T12:21:24;3.20;99.90
20654;DHT22;21083;50.898;4.902;2023-01-29T12:23:56;3.20;99.90
20654;DHT22;21083;50.898;4.902;2023-01-29T12:26:30;3.20;99.90
20654;DHT22;21083;50.898;4.902;2023-01-29T12:29:14;3.30;99.90
20654;DHT22;21083;50.898;4.902;2023-01-29T12:31:47;3.30;99.90
20654;DHT22;21083;50.898;4.902;2023-01-29T12:34:21;3.40;99.90
20654;DHT22;21083;50.898;4.902;2023-01-29T12:36:53;3.50;99.90
20654;DHT22;21083;50.898;4.902;2023-01-29T12:39:21;3.20;99.90
20654;DHT22;21083;50.898;4.902;2023-01-29T12:41:53;3.20;99.90
20654;DHT22;21083;50.898;4.902;2023-01-29T12:44:29;3.10;99.90
20654;DHT22;21083;50.898;4.902;2023-01-29T12:47:00;3.20;99.90
20654;DHT22;21083;50.898;4.902;2023-01-29T12:49:31;3.30;99.90
20654;DHT22;21083;50.898;4.902;2023-01-29T12:52:03;3.20;99.90
20654;DHT22;21083;50.898;4.902;2023-01-29T12:54:36;3.30;99.90
20654;DHT22;21083;50.898;4.902;2023-01-29T12:57:09;3.30;99.90
20654;DHT22;21083;50.898;4.902;2023-01-29T12:59:44;3.30;99.90
20654;DHT22;21083;50.898;4.902;2023-01-29T13:02:19;3.30;99.90
20654;DHT22;21083;50.898;4.902;2023-01-29T13:04:54;3.30;99.90
20654;DHT22;21083;50.898;4.902;2023-01-29T13:07:27;3.10;99.90
20654;DHT22;21083;50.898;4.902;2023-01-29T13:10:00;3.30;99.90
20654;DHT22;21083;50.898;4.902;2023-01-29T13:12:30;3.30;99.90
20654;DHT22;21083;50.898;4.902;2023-01-29T13:15:04;3.20;99.90
20654;DHT22;21083;50.898;4.902;2023-01-29T13:17:35;3.20;99.90
20654;DHT22;21083;50.898;4.902;2023-01-29T13:20:09;3.20;99.90
20654;DHT22;21083;50.898;4.902;2023-01-29T13:22:40;3.20;99.90
20654;DHT22;21083;50.898;4.902;2023-01-29T13:25:14;3.30;99.90
20654;DHT22;21083;50.898;4.902;2023-01-29T13:27:42;3.30;99.90
20654;DHT22;21083;50.898;4.902;2023-01-29T13:30:24;3.30;99.90
20654;DHT22;21083;50.898;4.902;2023-01-29T13:32:52;3.30;99.90
20654;DHT22;21083;50.898;4.902;2023-01-29T13:35:21;3.20;99.90
20654;DHT22;21083;50.898;4.902;2023-01-29T13:37:51;3.30;99.90
20654;DHT22;21083;50.898;4.902;2023-01-29T13:40:22;3.40;99.90
20654;DHT22;21083;50.898;4.902;2023-01-29T13:42:50;3.30;99.90
20654;DHT22;21083;50.898;4.902;2023-01-29T13:45:21;3.30;99.90
20654;DHT22;21083;50.898;4.902;2023-01-29T13:47:51;3.30;99.90
20654;DHT22;21083;50.898;4.902;2023-01-29T13:50:20;3.40;99.90
20654;DHT22;21083;50.898;4.902;2023-01-29T13:52:54;3.20;99.90
20654;DHT22;21083;50.898;4.902;2023-01-29T13:55:26;3.20;99.90
20654;DHT22;21083;50.898;4.902;2023-01-29T13:57:58;3.40;99.90
20654;DHT22;21083;50.898;4.902;2023-01-29T14:00:55;3.40;99.90
20654;DHT22;21083;50.898;4.902;2023-01-29T14:03:41;3.40;99.90
20654;DHT22;21083;50.898;4.902;2023-01-29T14:06:08;3.50;99.90
20654;DHT22;21083;50.898;4.902;2023-01-29T14:08:37;3.50;99.90
20654;DHT22;21083;50.898;4.902;2023-01-29T14:11:27;3.60;99.90
20654;DHT22;21083;50.898;4.902;2023-01-29T14:13:54;3.60;99.90
20654;DHT22;21083;50.898;4.902;2023-01-29T14:16:33;3.70;99.90
20654;DHT22;21083;50.898;4.902;2023-01-29T14:19:03;3.70;99.90
20654;DHT22;21083;50.898;4.902;2023-01-29T14:21:32;3.90;99.90
20654;DHT22;21083;50.898;4.902;2023-01-29T14:24:08;3.90;99.90
20654;DHT22;21083;50.898;4.902;2023-01-29T14:26:42;4.00;99.90
20654;DHT22;21083;50.898;4.902;2023-01-29T14:29:18;4.00;99.90
20654;DHT22;21083;50.898;4.902;2023-01-29T14:31:48;3.90;99.90
20654;DHT22;21083;50.898;4.902;2023-01-29T14:34:21;3.90;99.90
20654;DHT22;21083;50.898;4.902;2023-01-29T14:36:51;3.80;99.90
20654;DHT22;21083;50.898;4.902;2023-01-29T14:39:28;3.80;99.90
20654;DHT22;21083;50.898;4.902;2023-01-29T14:41:58;3.90;99.90
20654;DHT22;21083;50.898;4.902;2023-01-29T14:47:57;3.90;99.90
20654;DHT22;21083;50.898;4.902;2023-01-29T14:50:50;3.90;99.90
20654;DHT22;21083;50.898;4.902;2023-01-29T14:53:23;4.00;99.90
20654;DHT22;21083;50.898;4.902;2023-01-29T14:55:57;4.00;99.90
20654;DHT22;21083;50.898;4.902;2023-01-29T14:58:37;3.90;99.90
20654;DHT22;21083;50.898;4.902;2023-01-29T15:01:06;4.00;99.90
20654;DHT22;21083;50.898;4.902;2023-01-29T15:03:43;3.90;99.90
20654;DHT22;21083;50.898;4.902;2023-01-29T15:06:17;3.90;99.90
20654;DHT22;21083;50.898;4.902;2023-01-29T15:08:49;3.90;99.90
20654;DHT22;21083;50.898;4.902;2023-01-29T15:11:24;4.00;99.90
20654;DHT22;21083;50.898;4.902;2023-01-29T15:14:07;3.90;99.90
20654;DHT22;21083;50.898;4.902;2023-01-29T15:16:46;4.00;99.90
20654;DHT22;21083;50.898;4.902;2023-01-29T15:19:19;4.10;99.90
20654;DHT22;21083;50.898;4.902;2023-01-29T15:22:05;4.00;99.90
20654;DHT22;21083;50.898;4.902;2023-01-29T15:24:33;3.90;99.90
20654;DHT22;21083;50.898;4.902;2023-01-29T15:27:00;3.80;99.90
20654;DHT22;21083;50.898;4.902;2023-01-29T15:29:28;3.80;99.90
20654;DHT22;21083;50.898;4.902;2023-01-29T15:31:55;3.80;99.90
20654;DHT22;21083;50.898;4.902;2023-01-29T15:34:23;3.70;99.90
20654;DHT22;21083;50.898;4.902;2023-01-29T15:36:50;3.70;99.90
20654;DHT22;21083;50.898;4.902;2023-01-29T15:39:20;3.80;99.90
20654;DHT22;21083;50.898;4.902;2023-01-29T15:41:47;4.00;99.90
20654;DHT22;21083;50.898;4.902;2023-01-29T15:44:17;3.90;99.90
20654;DHT22;21083;50.898;4.902;2023-01-29T15:46:48;3.90;99.90
20654;DHT22;21083;50.898;4.902;2023-01-29T15:49:20;3.80;99.90
20654;DHT22;21083;50.898;4.902;2023-01-29T15:51:54;4.00;99.90
20654;DHT22;21083;50.898;4.902;2023-01-29T15:54:24;3.80;99.90
20654;DHT22;21083;50.898;4.902;2023-01-29T15:56:55;3.90;99.90
20654;DHT22;21083;50.898;4.902;2023-01-29T15:59:25;3.80;99.90
20654;DHT22;21083;50.898;4.902;2023-01-29T16:01:52;3.70;99.90
20654;DHT22;21083;50.898;4.902;2023-01-29T16:04:23;3.70;99.90
20654;DHT22;21083;50.898;4.902;2023-01-29T16:06:52;3.70;99.90
20654;DHT22;21083;50.898;4.902;2023-01-29T16:09:21;3.70;99.90
20654;DHT22;21083;50.898;4.902;2023-01-29T16:11:51;3.70;99.90
20654;DHT22;21083;50.898;4.902;2023-01-29T16:14:20;3.60;99.90
20654;DHT22;21083;50.898;4.902;2023-01-29T16:16:50;3.50;99.90